Time;durP1;ratioP1;P1;durP2;ratioP2;P2;SDS_P1;SDS_P2;PMS_P1;PMS_P2;Temp;Humidity;BMP_temperature;BMP_pressure;BME280_temperature;BME280_humidity;BME280_pressure;Samples;Min_cycle;Max_cycle;Signal;HPM_P1;HPM_P2
2022/02/27 00:02:06;;;;;;;15.82;3.83;;;-1.00;99.90;;;;;;5012481;28;20109;-70
2022/02/27 00:04:32;;;;;;;15.35;3.05;;;-1.00;99.90;;;;;;5012704;28;20026;-72
2022/02/27 00:06:57;;;;;;;16.02;2.88;;;-1.00;99.90;;;;;;5011963;28;20435;-71
2022/02/27 00:09:23;;;;;;;18.15;3.10;;;-1.00;99.90;;;;;;5012283;28;20087;-73
2022/02/27 00:11:49;;;;;;;13.77;3.30;;;-1.00;99.90;;;;;;5012484;28;20053;-73
2022/02/27 00:14:15;;;;;;;11.20;2.63;;;-1.00;99.90;;;;;;5011485;28;20352;-73
2022/02/27 00:16:41;;;;;;;9.75;2.50;;;-1.00;99.90;;;;;;5012786;28;20038;-73
2022/02/27 00:19:06;;;;;;;7.53;2.53;;;-1.00;99.90;;;;;;5012229;28;20026;-70
2022/02/27 00:21:32;;;;;;;14.30;4.32;;;-1.10;99.90;;;;;;5012198;28;20101;-73
2022/02/27 00:23:58;;;;;;;9.48;2.95;;;-1.10;99.90;;;;;;5012520;28;20371;-73
2022/02/27 00:26:23;;;;;;;16.92;3.05;;;-1.20;99.90;;;;;;5011466;28;20490;-73
2022/02/27 00:28:49;;;;;;;15.00;3.42;;;-1.10;99.90;;;;;;5012107;28;20061;-74
2022/02/27 00:31:15;;;;;;;11.27;3.33;;;-1.10;99.90;;;;;;5011320;28;20115;-72
2022/02/27 00:33:40;;;;;;;14.60;3.38;;;-1.10;99.90;;;;;;5012074;28;20113;-71
2022/02/27 00:36:06;;;;;;;12.60;3.13;;;-1.10;99.90;;;;;;5012556;28;20021;-70
2022/02/27 00:38:32;;;;;;;14.55;2.90;;;-1.20;99.90;;;;;;5012271;28;20375;-72
2022/02/27 00:40:57;;;;;;;20.95;4.60;;;-1.20;99.90;;;;;;5012904;28;20061;-72
2022/02/27 00:43:23;;;;;;;12.23;3.83;;;-1.30;99.90;;;;;;5015418;28;20100;-71
2022/02/27 00:45:50;;;;;;;18.70;3.45;;;-1.30;99.90;;;;;;5032024;28;20034;-72
2022/02/27 00:48:15;;;;;;;12.23;3.08;;;-1.30;99.90;;;;;;5031579;28;20042;-72
2022/02/27 00:50:41;;;;;;;11.88;3.75;;;-1.30;99.90;;;;;;5032417;28;20037;-72
2022/02/27 00:53:08;;;;;;;11.93;3.10;;;-1.30;99.90;;;;;;5031666;28;20382;-70
2022/02/27 00:55:34;;;;;;;9.40;3.47;;;-1.30;99.90;;;;;;5032046;28;20033;-72
2022/02/27 00:58:00;;;;;;;12.07;3.45;;;-1.30;99.90;;;;;;5032000;28;20689;-71
2022/02/27 01:00:26;;;;;;;19.15;3.20;;;-1.30;99.90;;;;;;5032343;28;20660;-72
2022/02/27 01:02:52;;;;;;;12.95;3.38;;;-1.30;99.90;;;;;;5032790;28;20033;-72
2022/02/27 01:05:18;;;;;;;18.08;2.92;;;-1.40;99.90;;;;;;5031558;28;20030;-71
2022/02/27 01:07:43;;;;;;;8.45;2.78;;;-1.40;99.90;;;;;;5032232;28;20451;-70
2022/02/27 01:10:09;;;;;;;11.65;3.03;;;-1.30;99.90;;;;;;5030170;28;20095;-70
2022/02/27 01:12:35;;;;;;;8.48;2.97;;;-1.30;99.90;;;;;;5032137;28;20026;-73
2022/02/27 01:15:01;;;;;;;11.07;3.13;;;-1.40;99.90;;;;;;5031419;28;20049;-73
2022/02/27 01:17:27;;;;;;;13.30;3.22;;;-1.30;99.90;;;;;;5031037;28;20567;-73
2022/02/27 01:19:52;;;;;;;10.65;2.83;;;-1.30;99.90;;;;;;5031816;28;20112;-73
2022/02/27 01:22:18;;;;;;;14.20;3.47;;;-1.40;99.90;;;;;;5030940;28;20025;-73
2022/02/27 01:24:44;;;;;;;14.02;3.20;;;-1.40;99.90;;;;;;5032034;28;20104;-74
2022/02/27 01:27:09;;;;;;;11.98;2.90;;;-1.40;99.90;;;;;;5030161;28;20030;-70
2022/02/27 01:29:35;;;;;;;15.63;3.03;;;-1.40;99.90;;;;;;5031632;28;20033;-73
2022/02/27 01:32:01;;;;;;;16.00;2.85;;;-1.40;99.90;;;;;;5031845;28;20108;-72
2022/02/27 01:34:26;;;;;;;19.58;3.13;;;-1.30;99.90;;;;;;5031051;28;20025;-73
2022/02/27 01:36:52;;;;;;;10.52;2.80;;;-1.30;99.90;;;;;;5030853;28;20029;-74
2022/02/27 01:39:17;;;;;;;12.80;2.80;;;-1.30;99.90;;;;;;5030786;28;20022;-73
2022/02/27 01:41:45;;;;;;;9.18;2.92;;;-1.20;99.90;;;;;;5031972;28;20437;-73
2022/02/27 01:44:11;;;;;;;13.13;3.35;;;-1.10;99.90;;;;;;5020788;28;20043;-71
2022/02/27 01:47:02;;;;;;;15.00;3.35;;;-1.10;99.90;;;;;;5011900;28;20037;-73
2022/02/27 01:49:28;;;;;;;16.80;3.38;;;-1.10;99.90;;;;;;5011535;28;20026;-73
2022/02/27 01:51:54;;;;;;;13.55;3.38;;;-1.20;99.90;;;;;;5012090;28;20030;-71
2022/02/27 01:54:21;;;;;;;16.98;2.80;;;-1.30;99.90;;;;;;5011548;28;20361;-72
2022/02/27 01:56:47;;;;;;;10.68;2.45;;;-1.40;99.90;;;;;;5011432;28;20053;-72
2022/02/27 01:59:14;;;;;;;15.57;3.53;;;-1.50;99.90;;;;;;5010936;28;20464;-70
2022/02/27 02:01:40;;;;;;;10.55;2.92;;;-1.50;99.90;;;;;;5012456;28;20038;-71
2022/02/27 02:04:06;;;;;;;12.20;2.85;;;-1.60;99.90;;;;;;5011700;28;20033;-71
2022/02/27 02:06:31;;;;;;;18.08;3.38;;;-1.70;99.90;;;;;;5011067;28;20030;-71
2022/02/27 02:08:57;;;;;;;14.70;3.17;;;-1.70;99.90;;;;;;5011419;28;20030;-72
2022/02/27 02:11:23;;;;;;;16.45;3.25;;;-1.70;99.90;;;;;;5014692;28;20037;-72
2022/02/27 02:13:49;;;;;;;9.75;3.25;;;-1.70;99.90;;;;;;5015528;28;20033;-71
2022/02/27 02:16:14;;;;;;;16.50;3.10;;;-1.80;99.90;;;;;;5014238;28;20163;-72
2022/02/27 02:18:41;;;;;;;8.40;3.63;;;-1.80;99.90;;;;;;5015968;28;20062;-73
2022/02/27 02:21:08;;;;;;;10.70;2.90;;;-1.90;99.90;;;;;;5016074;28;20084;-72
2022/02/27 02:23:33;;;;;;;13.90;3.03;;;-1.90;99.90;;;;;;5015165;28;20090;-72
2022/02/27 02:26:02;;;;;;;9.95;3.20;;;-2.00;99.90;;;;;;5017361;28;20038;-73
2022/02/27 02:28:28;;;;;;;15.43;3.17;;;-2.00;99.90;;;;;;5019066;28;20029;-73
2022/02/27 02:30:53;;;;;;;16.88;3.22;;;-2.00;99.90;;;;;;5016102;28;20030;-74
2022/02/27 02:33:31;;;;;;;11.75;3.55;;;-2.00;99.90;;;;;;5014480;28;20132;-73
2022/02/27 02:35:57;;;;;;;11.57;3.17;;;-2.00;99.90;;;;;;5015395;28;20037;-73
2022/02/27 02:38:23;;;;;;;13.80;2.70;;;-2.00;99.90;;;;;;5014370;28;20117;-73
2022/02/27 02:40:48;;;;;;;9.13;2.67;;;-2.00;99.90;;;;;;5014921;28;20038;-74
2022/02/27 02:43:16;;;;;;;11.15;3.33;;;-2.10;99.90;;;;;;5016491;28;20164;-72
2022/02/27 02:45:42;;;;;;;12.05;3.42;;;-2.10;99.90;;;;;;5034664;28;20459;-73
2022/02/27 02:48:07;;;;;;;11.50;2.95;;;-2.10;99.90;;;;;;5034771;28;20041;-71
2022/02/27 02:50:33;;;;;;;16.65;3.40;;;-2.10;99.90;;;;;;5033912;28;20033;-71
2022/02/27 02:52:59;;;;;;;8.68;3.22;;;-2.10;99.90;;;;;;5034650;28;20030;-72
2022/02/27 02:55:24;;;;;;;13.15;3.30;;;-2.10;99.90;;;;;;5033961;28;20029;-73
2022/02/27 02:57:50;;;;;;;11.40;3.50;;;-2.20;99.90;;;;;;5036196;28;20108;-72
2022/02/27 03:00:16;;;;;;;13.18;3.65;;;-2.20;99.90;;;;;;5038005;28;20030;-72
2022/02/27 03:02:42;;;;;;;11.90;3.53;;;-2.20;99.90;;;;;;5044900;28;20116;-73
2022/02/27 03:05:09;;;;;;;16.77;3.92;;;-2.10;99.90;;;;;;5049986;28;20364;-72
2022/02/27 03:07:37;;;;;;;9.20;3.60;;;-2.10;99.90;;;;;;5038606;28;20030;-72
2022/02/27 03:10:06;;;;;;;15.65;3.60;;;-2.10;99.90;;;;;;5034111;28;20037;-72
2022/02/27 03:12:32;;;;;;;14.32;3.70;;;-2.10;99.90;;;;;;5033726;28;20041;-73
2022/02/27 03:14:58;;;;;;;11.50;3.88;;;-2.10;99.90;;;;;;5034021;28;20049;-72
2022/02/27 03:17:24;;;;;;;15.05;3.53;;;-2.10;99.90;;;;;;5033500;28;20040;-72
2022/02/27 03:19:50;;;;;;;8.98;3.00;;;-2.10;99.90;;;;;;5034064;28;20034;-71
2022/02/27 03:22:15;;;;;;;9.52;2.90;;;-2.20;99.90;;;;;;5032194;28;20033;-72
2022/02/27 03:24:41;;;;;;;12.50;3.67;;;-2.20;99.90;;;;;;5034114;28;20469;-72
2022/02/27 03:27:06;;;;;;;14.68;3.70;;;-2.30;99.90;;;;;;5033727;28;20410;-72
2022/02/27 03:29:32;;;;;;;17.20;4.22;;;-2.30;99.90;;;;;;5033262;28;20044;-72
2022/02/27 03:31:58;;;;;;;14.73;3.38;;;-2.30;99.90;;;;;;5033905;28;20021;-72
2022/02/27 03:34:23;;;;;;;14.43;3.80;;;-2.30;99.90;;;;;;5033084;28;20036;-72
2022/02/27 03:36:49;;;;;;;13.40;4.00;;;-2.20;99.90;;;;;;5033834;28;20032;-72
2022/02/27 03:39:15;;;;;;;11.85;3.15;;;-2.20;99.90;;;;;;5032934;28;20061;-70
2022/02/27 03:41:41;;;;;;;6.45;3.40;;;-2.20;99.90;;;;;;5033834;28;20044;-72
2022/02/27 03:44:06;;;;;;;9.25;3.45;;;-2.20;99.90;;;;;;5033682;28;20029;-72
2022/02/27 03:46:34;;;;;;;14.45;3.70;;;-2.30;99.90;;;;;;5031470;28;20025;-73
2022/02/27 03:49:01;;;;;;;18.98;3.83;;;-2.30;99.90;;;;;;5033608;28;20083;-74
2022/02/27 03:51:27;;;;;;;13.27;3.55;;;-2.30;99.90;;;;;;5032741;28;20029;-73
2022/02/27 03:53:53;;;;;;;13.77;3.75;;;-2.30;99.90;;;;;;5033508;28;20025;-73
2022/02/27 03:56:19;;;;;;;9.63;3.55;;;-2.30;99.90;;;;;;5032645;28;20033;-72
2022/02/27 03:58:45;;;;;;;10.45;3.40;;;-2.30;99.90;;;;;;5033403;28;20053;-72
2022/02/27 04:01:10;;;;;;;15.88;3.92;;;-2.30;99.90;;;;;;5033638;28;20035;-72
2022/02/27 04:03:36;;;;;;;10.82;3.40;;;-2.30;99.90;;;;;;5032550;28;20033;-73
2022/02/27 04:06:02;;;;;;;11.60;3.60;;;-2.40;99.90;;;;;;5033250;28;20029;-73
2022/02/27 04:08:28;;;;;;;15.25;3.53;;;-2.40;99.90;;;;;;5032382;28;20030;-73
2022/02/27 04:10:53;;;;;;;7.95;3.60;;;-2.40;99.90;;;;;;5032687;28;20548;-73
2022/02/27 04:13:19;;;;;;;11.10;3.67;;;-2.40;99.90;;;;;;5033955;28;20052;-73
2022/02/27 04:15:45;;;;;;;11.85;4.32;;;-2.40;99.90;;;;;;5038299;28;20046;-73
2022/02/27 04:18:10;;;;;;;8.07;3.50;;;-2.50;99.90;;;;;;5039340;28;20502;-73
2022/02/27 04:20:36;;;;;;;12.90;4.05;;;-2.50;99.90;;;;;;5034078;28;20026;-74
2022/02/27 04:23:03;;;;;;;10.60;4.10;;;-2.60;99.90;;;;;;5037363;28;20112;-73
2022/02/27 04:25:28;;;;;;;10.55;3.90;;;-2.60;99.90;;;;;;5036501;28;20100;-73
2022/02/27 04:27:56;;;;;;;16.70;5.00;;;-2.60;99.90;;;;;;5031498;28;20036;-72
2022/02/27 04:30:22;;;;;;;18.10;4.55;;;-2.60;99.90;;;;;;5031848;28;20467;-72
2022/02/27 04:32:48;;;;;;;13.43;3.70;;;-2.60;99.90;;;;;;5032510;28;20129;-73
2022/02/27 04:35:14;;;;;;;14.00;4.07;;;-2.60;99.90;;;;;;5032554;28;20102;-71
2022/02/27 04:37:40;;;;;;;12.93;5.07;;;-2.50;99.90;;;;;;5032123;28;20156;-72
2022/02/27 04:40:07;;;;;;;16.58;4.20;;;-2.50;99.90;;;;;;5032816;28;20519;-73
2022/02/27 04:42:33;;;;;;;15.95;4.45;;;-2.50;99.90;;;;;;5031596;28;20029;-72
2022/02/27 04:44:58;;;;;;;11.32;4.28;;;-2.40;99.90;;;;;;5032526;28;20048;-72
2022/02/27 04:47:24;;;;;;;13.75;4.50;;;-2.50;99.90;;;;;;5031604;28;20029;-73
2022/02/27 04:49:50;;;;;;;23.80;4.93;;;-2.50;99.90;;;;;;5032506;28;20033;-73
2022/02/27 04:52:16;;;;;;;15.57;4.40;;;-2.50;99.90;;;;;;5030757;28;20038;-70
2022/02/27 04:54:43;;;;;;;13.93;4.28;;;-2.50;99.90;;;;;;5032124;28;20378;-72
2022/02/27 04:57:09;;;;;;;17.70;4.70;;;-2.50;99.90;;;;;;5032407;28;20113;-72
2022/02/27 04:59:34;;;;;;;15.30;4.63;;;-2.50;99.90;;;;;;5031522;28;20097;-72
2022/02/27 05:02:00;;;;;;;21.88;5.07;;;-2.60;99.90;;;;;;5031965;28;20052;-73
2022/02/27 05:04:25;;;;;;;9.13;3.80;;;-2.60;99.90;;;;;;5031253;28;20521;-72
2022/02/27 05:06:51;;;;;;;15.13;4.32;;;-2.60;99.90;;;;;;5032044;28;20025;-72
2022/02/27 05:09:19;;;;;;;11.05;4.18;;;-2.60;99.90;;;;;;5031746;28;20037;-70
2022/02/27 05:11:48;;;;;;;14.38;4.80;;;-2.60;99.90;;;;;;5030877;28;20068;-72
2022/02/27 05:14:14;;;;;;;17.65;5.20;;;-2.70;99.90;;;;;;5031640;28;20053;-72
2022/02/27 05:16:41;;;;;;;15.55;5.10;;;-2.60;99.90;;;;;;5031457;28;20038;-72
2022/02/27 05:19:07;;;;;;;18.42;5.20;;;-2.70;99.90;;;;;;5032067;28;20467;-72
2022/02/27 05:21:33;;;;;;;17.25;4.70;;;-2.70;99.90;;;;;;5031169;28;20025;-73
2022/02/27 05:23:59;;;;;;;15.93;5.40;;;-2.70;99.90;;;;;;5031636;28;20390;-72
2022/02/27 05:26:25;;;;;;;21.02;5.53;;;-2.70;99.90;;;;;;5031263;28;20022;-72
2022/02/27 05:28:50;;;;;;;16.17;5.10;;;-2.70;99.90;;;;;;5031799;28;20156;-72
2022/02/27 05:31:16;;;;;;;14.88;5.47;;;-2.70;99.90;;;;;;5031650;28;20037;-70
2022/02/27 05:33:42;;;;;;;17.27;5.78;;;-2.80;99.90;;;;;;5031753;28;20037;-72
2022/02/27 05:36:08;;;;;;;11.00;5.30;;;-2.80;99.90;;;;;;5031969;28;20355;-72
2022/02/27 05:38:33;;;;;;;14.90;5.15;;;-2.80;99.90;;;;;;5031046;28;20478;-72
2022/02/27 05:40:59;;;;;;;18.27;5.43;;;-2.90;99.90;;;;;;5031714;28;20033;-72
2022/02/27 05:43:24;;;;;;;18.63;5.82;;;-2.90;99.90;;;;;;5027042;28;20022;-72
2022/02/27 05:45:50;;;;;;;14.70;5.95;;;-3.00;99.90;;;;;;5013975;28;20033;-72
2022/02/27 05:48:16;;;;;;;17.55;5.85;;;-3.00;99.90;;;;;;5015604;28;20534;-70
2022/02/27 05:50:41;;;;;;;15.23;5.75;;;-3.00;99.90;;;;;;5015638;28;20030;-72
2022/02/27 05:53:07;;;;;;;17.52;6.70;;;-3.00;99.90;;;;;;5015948;28;20073;-72
2022/02/27 05:55:32;;;;;;;19.58;5.78;;;-3.00;99.90;;;;;;5016138;28;20432;-71
2022/02/27 05:57:58;;;;;;;26.63;6.88;;;-2.90;99.90;;;;;;5015788;28;20519;-73
2022/02/27 06:00:24;;;;;;;15.27;6.32;;;-2.80;99.90;;;;;;5014953;28;20034;-72
2022/02/27 06:02:49;;;;;;;18.58;6.50;;;-2.80;99.90;;;;;;5015441;28;20034;-73
2022/02/27 06:05:15;;;;;;;15.57;6.50;;;-2.80;99.90;;;;;;5015715;28;20041;-72
2022/02/27 06:07:43;;;;;;;26.20;6.57;;;-2.80;99.90;;;;;;5015587;28;20344;-73
2022/02/27 06:10:10;;;;;;;22.38;6.18;;;-2.80;99.90;;;;;;5014332;28;20065;-71
2022/02/27 06:12:36;;;;;;;17.52;6.95;;;-2.80;99.90;;;;;;5014417;28;20022;-71
2022/02/27 06:15:02;;;;;;;17.20;6.22;;;-2.90;99.90;;;;;;5015077;28;20129;-71
2022/02/27 06:17:28;;;;;;;17.08;6.78;;;-2.80;99.90;;;;;;5014767;28;20033;-72
2022/02/27 06:19:54;;;;;;;20.27;6.95;;;-2.80;99.90;;;;;;5015410;28;20449;-72
2022/02/27 06:22:20;;;;;;;17.63;7.63;;;-2.90;99.90;;;;;;5015386;28;20419;-69
2022/02/27 06:24:47;;;;;;;21.85;6.85;;;-2.80;99.90;;;;;;5015414;28;20161;-71
2022/02/27 06:27:12;;;;;;;21.27;7.13;;;-2.80;99.90;;;;;;5015145;28;20029;-70
2022/02/27 06:29:38;;;;;;;20.63;7.35;;;-2.70;99.90;;;;;;5014145;28;20025;-71
2022/02/27 06:32:04;;;;;;;24.90;7.47;;;-2.70;99.90;;;;;;5015476;28;20058;-71
2022/02/27 06:34:30;;;;;;;17.08;7.40;;;-2.70;99.90;;;;;;5014335;28;20467;-71
2022/02/27 06:36:56;;;;;;;18.05;6.20;;;-2.70;99.90;;;;;;5015248;28;20041;-72
2022/02/27 06:39:21;;;;;;;17.58;6.82;;;-2.70;99.90;;;;;;5013994;28;20029;-71
2022/02/27 06:41:47;;;;;;;19.13;7.32;;;-2.70;99.90;;;;;;5014874;28;20029;-69
2022/02/27 06:44:13;;;;;;;24.35;7.07;;;-2.60;99.90;;;;;;5024110;28;20108;-70
2022/02/27 06:46:39;;;;;;;17.20;7.72;;;-2.60;99.90;;;;;;5034183;28;20096;-71
2022/02/27 06:49:05;;;;;;;16.25;6.75;;;-2.60;99.90;;;;;;5035325;28;20083;-71
2022/02/27 06:51:31;;;;;;;18.50;6.45;;;-2.60;99.90;;;;;;5036352;28;20071;-71
2022/02/27 06:53:56;;;;;;;20.13;7.72;;;-2.60;99.90;;;;;;5042588;28;20024;-70
2022/02/27 06:56:23;;;;;;;21.48;6.55;;;-2.60;99.90;;;;;;5040393;28;20061;-69
2022/02/27 06:58:49;;;;;;;17.00;8.10;;;-2.60;99.90;;;;;;5034854;28;20034;-70
2022/02/27 07:01:18;;;;;;;16.42;7.07;;;-2.60;99.90;;;;;;5034498;28;20489;-71
2022/02/27 07:03:44;;;;;;;19.42;8.43;;;-2.50;99.90;;;;;;5033941;28;20042;-71
2022/02/27 07:06:10;;;;;;;18.45;6.72;;;-2.50;99.90;;;;;;5034437;28;20096;-71
2022/02/27 07:08:35;;;;;;;17.00;6.78;;;-2.40;99.90;;;;;;5033623;28;20025;-70
2022/02/27 07:11:02;;;;;;;17.80;7.45;;;-2.30;99.90;;;;;;5034072;28;20033;-71
2022/02/27 07:13:29;;;;;;;23.80;8.68;;;-2.30;99.90;;;;;;5033551;28;20057;-73
2022/02/27 07:15:55;;;;;;;20.92;8.88;;;-2.20;99.90;;;;;;5034075;28;20049;-73
2022/02/27 07:18:21;;;;;;;19.50;7.10;;;-2.00;99.90;;;;;;5033765;28;20033;-71
2022/02/27 07:20:47;;;;;;;16.20;7.30;;;-1.90;99.90;;;;;;5033639;28;20048;-74
2022/02/27 07:23:12;;;;;;;18.75;8.27;;;-1.90;99.90;;;;;;5033971;28;20096;-69
2022/02/27 07:25:38;;;;;;;15.25;7.63;;;-1.80;99.90;;;;;;5033535;28;20460;-72
2022/02/27 07:28:05;;;;;;;19.13;7.30;;;-1.70;99.90;;;;;;5033836;28;20040;-72
2022/02/27 07:30:31;;;;;;;18.60;7.20;;;-1.60;99.90;;;;;;5034832;28;20032;-69
2022/02/27 07:32:56;;;;;;;22.33;7.63;;;-1.60;99.90;;;;;;5035158;28;20022;-72
2022/02/27 07:35:22;;;;;;;11.30;6.75;;;-1.40;99.90;;;;;;5033402;28;20448;-68
2022/02/27 07:37:49;;;;;;;21.42;7.88;;;-1.40;99.90;;;;;;5033650;28;20486;-71
2022/02/27 07:40:14;;;;;;;16.08;7.38;;;-1.30;99.90;;;;;;5034516;28;20540;-71
2022/02/27 07:42:40;;;;;;;15.40;7.25;;;-1.20;99.90;;;;;;5032619;28;20037;-71
2022/02/27 07:45:07;;;;;;;16.02;7.43;;;-1.00;99.90;;;;;;5015683;28;20033;-71
2022/02/27 07:47:33;;;;;;;22.38;7.60;;;-1.00;99.90;;;;;;5013070;28;20080;-71
2022/02/27 07:49:58;;;;;;;18.02;8.52;;;-0.90;99.90;;;;;;5013422;28;20026;-72
2022/02/27 07:52:24;;;;;;;20.50;9.25;;;-0.80;99.90;;;;;;5013601;28;20030;-71
2022/02/27 07:54:50;;;;;;;20.08;9.05;;;-0.70;99.90;;;;;;5013055;28;20387;-70
2022/02/27 07:57:16;;;;;;;16.75;7.53;;;-0.60;99.90;;;;;;5020334;28;20040;-70
2022/02/27 07:59:42;;;;;;;13.93;7.53;;;-0.50;99.90;;;;;;5030352;28;20045;-70
2022/02/27 08:02:07;;;;;;;14.75;7.82;;;-0.40;99.90;;;;;;5033215;28;20038;-71
2022/02/27 08:04:33;;;;;;;16.25;7.50;;;-0.30;99.90;;;;;;5032502;28;20022;-72
2022/02/27 08:07:01;;;;;;;20.98;8.02;;;-0.10;99.90;;;;;;5032670;28;20030;-72
2022/02/27 08:09:28;;;;;;;18.05;6.75;;;0.10;99.90;;;;;;5032918;28;20112;-68
2022/02/27 08:11:53;;;;;;;17.17;7.32;;;0.20;99.90;;;;;;5033169;28;20104;-72
2022/02/27 08:14:19;;;;;;;16.75;7.68;;;0.50;99.90;;;;;;5032763;28;20192;-71
2022/02/27 08:16:44;;;;;;;16.90;7.32;;;0.60;99.90;;;;;;5031648;28;20028;-71
2022/02/27 08:19:10;;;;;;;14.60;7.88;;;0.80;99.90;;;;;;5033124;28;20039;-71
2022/02/27 08:21:36;;;;;;;15.00;6.97;;;0.90;99.90;;;;;;5032422;28;20029;-71
2022/02/27 08:24:02;;;;;;;18.10;6.80;;;1.30;99.90;;;;;;5032856;28;20471;-72
2022/02/27 08:26:28;;;;;;;15.60;6.30;;;1.40;99.90;;;;;;5031953;28;20084;-70
2022/02/27 08:28:54;;;;;;;16.95;8.10;;;1.50;99.90;;;;;;5032664;28;20059;-72
2022/02/27 08:31:19;;;;;;;13.18;6.70;;;1.50;99.90;;;;;;5032920;28;20029;-71
2022/02/27 08:33:45;;;;;;;14.57;6.63;;;1.60;99.90;;;;;;5031550;28;20086;-72
2022/02/27 08:36:15;;;;;;;15.40;6.53;;;1.70;99.90;;;;;;5025605;28;20021;-72
2022/02/27 08:38:40;;;;;;;14.65;6.47;;;1.80;99.90;;;;;;5034023;28;20079;-73
2022/02/27 08:41:06;;;;;;;16.75;6.80;;;1.90;99.90;;;;;;5033289;28;20064;-72
2022/02/27 08:43:31;;;;;;;14.50;7.03;;;2.00;99.90;;;;;;5030438;28;20028;-71
2022/02/27 08:45:57;;;;;;;13.50;5.93;;;2.20;99.90;;;;;;5031873;28;20036;-72
2022/02/27 08:48:23;;;;;;;12.85;6.13;;;2.30;99.90;;;;;;5032205;28;20034;-70
2022/02/27 08:50:49;;;;;;;15.18;6.90;;;2.30;99.90;;;;;;5031437;28;20028;-74
2022/02/27 08:53:14;;;;;;;12.63;6.72;;;2.40;99.90;;;;;;5032874;28;20079;-73
2022/02/27 08:55:40;;;;;;;15.48;6.55;;;2.50;99.90;;;;;;5031733;28;20053;-72
2022/02/27 08:58:06;;;;;;;17.27;6.45;;;2.70;99.90;;;;;;5032267;28;20159;-72
2022/02/27 09:00:31;;;;;;;12.43;5.88;;;2.90;99.90;;;;;;5030731;28;20391;-71
2022/02/27 09:02:57;;;;;;;15.35;6.20;;;3.10;99.90;;;;;;5033173;28;20033;-72
2022/02/27 09:05:23;;;;;;;12.98;6.25;;;3.20;99.90;;;;;;5033653;28;20034;-73
2022/02/27 09:07:48;;;;;;;9.98;5.65;;;3.30;99.90;;;;;;5034981;28;20056;-74
2022/02/27 09:10:15;;;;;;;13.65;5.03;;;3.40;99.90;;;;;;5032236;28;20038;-73
2022/02/27 09:12:43;;;;;;;10.82;4.65;;;3.60;99.90;;;;;;5031230;28;20021;-73
2022/02/27 09:15:11;;;;;;;10.20;4.50;;;3.70;99.90;;;;;;5031315;28;20095;-72
2022/02/27 09:17:37;;;;;;;11.55;4.53;;;3.90;99.90;;;;;;5031420;28;20087;-73
2022/02/27 09:20:05;;;;;;;8.32;3.75;;;4.10;99.90;;;;;;5030438;28;20029;-72
2022/02/27 09:22:30;;;;;;;13.18;4.47;;;4.20;99.90;;;;;;5030608;28;20044;-71
2022/02/27 09:24:56;;;;;;;11.13;4.53;;;4.20;99.90;;;;;;5031842;28;20421;-72
2022/02/27 09:27:22;;;;;;;9.77;4.60;;;4.40;99.90;;;;;;5031707;28;20021;-72
2022/02/27 09:29:47;;;;;;;10.13;4.80;;;4.40;99.90;;;;;;5031258;28;20117;-72
2022/02/27 09:32:13;;;;;;;7.78;4.10;;;4.50;99.90;;;;;;5031628;28;20494;-74
2022/02/27 09:34:38;;;;;;;7.57;4.22;;;4.70;99.90;;;;;;5030721;28;20032;-71
2022/02/27 09:37:04;;;;;;;10.80;4.53;;;4.80;99.80;;;;;;5031320;28;20026;-73
2022/02/27 09:39:31;;;;;;;9.45;4.10;;;4.80;99.80;;;;;;5031472;28;20040;-70
2022/02/27 09:41:57;;;;;;;18.40;4.68;;;4.90;99.10;;;;;;5031729;28;20056;-72
2022/02/27 09:44:23;;;;;;;10.80;4.57;;;5.00;98.60;;;;;;5019334;28;20475;-72
2022/02/27 09:46:49;;;;;;;9.40;4.05;;;5.00;98.00;;;;;;5011064;28;20034;-71
2022/02/27 09:49:16;;;;;;;9.15;4.40;;;5.10;96.50;;;;;;5011742;28;20029;-71
2022/02/27 09:51:42;;;;;;;9.02;3.78;;;5.10;97.10;;;;;;5010975;28;20034;-72
2022/02/27 09:54:09;;;;;;;10.48;4.03;;;5.30;96.20;;;;;;5011946;28;20459;-74
2022/02/27 09:56:35;;;;;;;9.90;3.85;;;5.30;94.90;;;;;;5014056;28;20399;-73
2022/02/27 09:59:01;;;;;;;7.15;3.65;;;5.50;92.80;;;;;;5011823;28;20022;-75
2022/02/27 10:01:27;;;;;;;7.57;3.75;;;5.50;92.30;;;;;;5011890;28;20482;-76
2022/02/27 10:03:53;;;;;;;9.18;4.20;;;5.60;92.10;;;;;;5011074;28;20465;-74
2022/02/27 10:06:19;;;;;;;8.93;4.38;;;5.70;91.90;;;;;;5011796;28;20406;-77
2022/02/27 10:08:57;;;;;;;7.88;4.00;;;5.80;91.30;;;;;;5011095;28;20464;-77
2022/02/27 10:11:24;;;;;;;6.05;3.42;;;5.70;90.70;;;;;;5011422;28;20395;-77
2022/02/27 10:13:53;;;;;;;10.65;3.78;;;5.80;90.60;;;;;;5010591;28;20743;-79
2022/02/27 10:16:21;;;;;;;6.40;3.42;;;5.90;88.60;;;;;;5011772;28;20053;-75
2022/02/27 10:18:47;;;;;;;8.38;4.25;;;5.90;88.00;;;;;;5010854;28;20041;-76
2022/02/27 10:21:19;;;;;;;8.27;3.58;;;5.90;88.90;;;;;;5011393;28;20037;-74
2022/02/27 10:23:56;;;;;;;7.68;3.55;;;5.90;87.20;;;;;;5010677;28;20375;-74
2022/02/27 10:26:24;;;;;;;7.80;4.20;;;6.00;85.60;;;;;;5011526;28;20038;-73
2022/02/27 10:29:28;;;;;;;9.00;3.75;;;6.10;84.60;;;;;;5010627;28;20044;-75
2022/02/27 10:31:54;;;;;;;5.47;3.55;;;6.10;83.40;;;;;;4992340;28;20053;-77
2022/02/27 10:34:26;;;;;;;6.57;3.80;;;6.10;83.20;;;;;;4993472;28;20153;-77
2022/02/27 10:37:08;;;;;;;6.57;3.35;;;6.10;82.70;;;;;;4992227;28;20035;-72
2022/02/27 10:39:42;;;;;;;6.20;3.30;;;5.90;82.10;;;;;;4997703;28;20038;-71
2022/02/27 10:42:08;;;;;;;6.57;3.10;;;6.00;80.60;;;;;;5000380;28;20044;-76
2022/02/27 10:44:35;;;;;;;4.78;3.08;;;6.10;79.20;;;;;;5024043;28;20053;-75
2022/02/27 10:47:22;;;;;;;3.58;2.55;;;6.20;75.60;;;;;;5036834;28;20037;-76
2022/02/27 10:49:50;;;;;;;8.10;3.35;;;6.20;76.60;;;;;;5012189;28;20100;-74
2022/02/27 10:52:22;;;;;;;8.02;3.55;;;6.30;76.10;;;;;;5012378;28;20044;-73
2022/02/27 10:54:51;;;;;;;4.15;2.58;;;6.30;75.70;;;;;;5011437;28;20030;-73
2022/02/27 10:57:31;;;;;;;5.43;2.75;;;6.40;73.30;;;;;;5012367;28;20033;-74
2022/02/27 11:00:20;;;;;;;6.88;3.65;;;6.50;72.60;;;;;;5011897;28;20026;-72
2022/02/27 11:02:50;;;;;;;7.07;3.08;;;6.60;69.70;;;;;;5022980;28;20052;-71
2022/02/27 11:05:19;;;;;;;3.80;1.90;;;6.60;66.60;;;;;;5022716;28;20120;-72
2022/02/27 11:07:47;;;;;;;6.00;2.35;;;6.50;64.80;;;;;;5013457;28;20034;-71
2022/02/27 11:10:18;;;;;;;3.53;2.35;;;6.50;65.70;;;;;;5014450;28;20112;-71
2022/02/27 11:12:43;;;;;;;3.83;2.40;;;6.60;66.70;;;;;;5017534;28;20079;-72
2022/02/27 11:15:12;;;;;;;4.38;2.80;;;6.60;65.40;;;;;;5033975;28;20054;-72
2022/02/27 11:17:39;;;;;;;5.47;2.28;;;6.80;65.70;;;;;;5033396;28;20121;-71
2022/02/27 11:20:07;;;;;;;4.00;2.08;;;6.90;63.80;;;;;;5033965;28;20037;-71
2022/02/27 11:22:33;;;;;;;4.93;2.95;;;6.90;63.60;;;;;;5032125;28;20033;-72
2022/02/27 11:25:02;;;;;;;4.05;2.30;;;6.90;62.70;;;;;;5033785;28;20105;-73
2022/02/27 11:27:28;;;;;;;3.92;2.13;;;6.90;63.20;;;;;;5033882;28;20360;-73
2022/02/27 11:29:56;;;;;;;4.70;2.25;;;6.90;60.50;;;;;;5033395;28;20779;-73
2022/02/27 11:32:22;;;;;;;4.53;2.30;;;6.90;61.70;;;;;;5033551;28;20112;-72
2022/02/27 11:34:48;;;;;;;4.13;2.55;;;6.90;61.80;;;;;;5033076;28;20474;-73
2022/02/27 11:37:14;;;;;;;4.68;2.75;;;7.00;62.60;;;;;;5033488;28;20116;-74
2022/02/27 11:42:47;;;;;;;4.20;2.13;;;7.20;62.00;;;;;;5032302;28;20040;-78
2022/02/27 11:45:12;;;;;;;6.43;2.50;;;7.20;59.80;;;;;;5018401;28;20459;-73
2022/02/27 11:47:53;;;;;;;5.18;2.40;;;7.20;60.50;;;;;;5033945;28;20052;-73
2022/02/27 11:50:35;;;;;;;;;;;7.20;60.40;;;;;;5034600;28;20064;-74
2022/02/27 11:53:17;;;;;;;5.65;2.50;;;7.10;60.80;;;;;;5033187;28;19905;-73
2022/02/27 11:55:45;;;;;;;4.40;2.60;;;7.20;61.60;;;;;;5032220;28;20382;-72
2022/02/27 11:58:20;;;;;;;5.80;2.97;;;7.30;61.30;;;;;;5033139;28;20025;-73
2022/02/27 12:00:47;;;;;;;7.00;2.90;;;7.20;61.90;;;;;;5032099;28;20034;-71
2022/02/27 12:03:31;;;;;;;4.63;2.90;;;7.30;63.00;;;;;;5033211;28;20029;-73
2022/02/27 12:06:02;;;;;;;6.22;3.15;;;7.40;63.60;;;;;;5031365;28;20044;-73
2022/02/27 12:08:40;;;;;;;7.65;3.38;;;7.50;63.10;;;;;;5032461;28;20536;-73
2022/02/27 12:11:26;;;;;;;4.32;2.65;;;7.60;62.80;;;;;;5033605;28;20036;-74
2022/02/27 12:14:00;;;;;;;7.63;3.50;;;7.70;62.60;;;;;;5031871;28;20873;-74
2022/02/27 12:16:44;;;;;;;6.53;3.20;;;7.80;62.00;;;;;;5032930;28;20068;-73
2022/02/27 12:19:31;;;;;;;9.38;3.42;;;7.90;62.20;;;;;;5032925;28;20049;-74
2022/02/27 12:21:59;;;;;;;5.60;3.38;;;7.90;62.60;;;;;;5032249;28;20057;-74
2022/02/27 12:24:30;;;;;;;6.72;3.50;;;8.00;62.20;;;;;;5032351;28;20558;-75
2022/02/27 12:27:00;;;;;;;5.30;3.45;;;8.20;62.20;;;;;;5032097;28;20060;-74
2022/02/27 12:29:32;;;;;;;6.15;3.08;;;;;;;;;;5031241;28;20025;-74
2022/02/27 12:32:05;;;;;;;7.10;3.40;;;8.80;60.00;;;;;;5030776;28;20373;-74
2022/02/27 12:34:33;;;;;;;4.68;2.97;;;9.10;60.00;;;;;;5032517;28;20029;-76
2022/02/27 12:37:00;;;;;;;4.80;3.40;;;9.40;58.80;;;;;;5032027;28;20057;-75
2022/02/27 12:39:31;;;;;;;7.80;3.70;;;9.80;57.30;;;;;;5031108;28;20100;-74
2022/02/27 12:41:57;;;;;;;7.97;3.53;;;10.00;56.90;;;;;;5031559;28;20064;-76
2022/02/27 12:44:34;;;;;;;6.78;2.83;;;10.00;57.10;;;;;;5022438;28;20445;-77
2022/02/27 12:47:02;;;;;;;6.25;3.10;;;10.00;55.80;;;;;;5032479;28;20029;-76